Terminal Aerodrome Forecast
Issued by NWS Wakefield, VA

Home | Current Version | Previous Version | Text Only | Print | Product List | Glossary On
Versions: 1 2 3 4 5 6 7 8 9 10 11 12 13 14 15 16
000
FTUS41 KAKQ 292300
TAFRIC
TAF
KRIC 292338Z 3000/3024 02005KT P6SM FEW060 SCT120
     FM300300 00000KT P6SM SKC
     FM301400 32004KT P6SM SCT250
     FM301800 26006KT P6SM SCT050=

USA.gov is the U.S. government's official web portal to all federal, state and local government web resources and services.